Helas — C4AZ2 — position and weather

sailwx.info

Track history (hours):
 
Tides and Currents Weather Stations Pressure Air Temp Water Temp Dewpoint Dewpoint Depression Visibility Wind Speed Wind Dir Waves Ship Positions

Helas

Last reported at 2018-Jan-18 03:28 UTC. Time now 2018-Jan-18 03:52 UTC.
Position N 52°28' E 004°36'.

Length 89 m; draft 5.5 m.

Type: Cargo ship. MMSI: 210031000.

Date/timePositionNaut miles runAvg speedWind from/ knotsBaromVisibWave heightAir tempDewpointWater temp
2018-Jan-18 03:28N 52°28' E 004°36'0 0.0
2018-Jan-18 02:58N 52°28' E 004°36'0 0.0
2018-Jan-18 02:28N 52°28' E 004°36'0 0.0
2018-Jan-18 01:58N 52°28' E 004°36'0 0.0
2018-Jan-18 01:28N 52°28' E 004°36'0 0.0
2018-Jan-18 00:58N 52°28' E 004°36'0 0.0
2018-Jan-17 23:58N 52°28' E 004°36'0 0.5
2018-Jan-17 23:55N 52°28' E 004°36'  
2018-Jan-11 17:32N 43°38' W 003°10'0 5.7
2018-Jan-11 17:29N 43°38' W 003°10'2 5.2
2018-Jan-11 17:00N 43°35' W 003°10'2 3.9
2018-Jan-11 16:30N 43°33' W 003°10'2 4.4
2018-Jan-11 15:59N 43°31' W 003°09'2 4.6
2018-Jan-11 15:30N 43°29' W 003°08'3 5.3
2018-Jan-11 15:00N 43°27' W 003°07'4 7.1
2018-Jan-11 14:31N 43°23' W 003°05'2 4.0
2018-Jan-11 14:00N 43°22' W 003°04'0 0.1
2018-Jan-11 13:26N 43°22' W 003°04'0 0.0
2018-Jan-11 12:56N 43°22' W 003°04'0 0.0
2018-Jan-11 12:29N 43°22' W 003°04'0 0.0
2018-Jan-11 11:59N 43°22' W 003°04'0 0.0
2018-Jan-11 11:20N 43°22' W 003°04'0 0.0
2018-Jan-11 10:56N 43°22' W 003°04'0 0.0
2018-Jan-11 10:26N 43°22' W 003°04'0 0.0
2018-Jan-11 09:56N 43°22' W 003°04'0 0.0
2018-Jan-11 09:26N 43°22' W 003°04'0 0.0
2018-Jan-11 08:02N 43°22' W 003°04'0 0.0
2018-Jan-11 07:53N 43°22' W 003°04'0 0.0
2018-Jan-11 07:29N 43°22' W 003°04'0 0.0
2018-Jan-11 05:31N 43°22' W 003°04'0 0.0
2018-Jan-11 05:25N 43°22' W 003°04'0 0.0
2018-Jan-11 03:25N 43°22' W 003°04'0 0.0
2018-Jan-11 02:46N 43°22' W 003°04'0 0.0
2018-Jan-11 02:28N 43°22' W 003°04'0 0.0
2018-Jan-11 01:58N 43°22' W 003°04'0 0.0
2018-Jan-11 01:28N 43°22' W 003°04'0 0.0
2018-Jan-11 00:58N 43°22' W 003°04'0 0.0
2018-Jan-11 00:25N 43°22' W 003°04'0 0.0
2018-Jan-10 23:58N 43°22' W 003°04'0 0.0
2018-Jan-10 23:25N 43°22' W 003°04'0 0.0
2018-Jan-10 22:52N 43°22' W 003°04'0 0.0
2018-Jan-10 22:28N 43°22' W 003°04'0 0.0
2018-Jan-10 21:58N 43°22' W 003°04'0 0.0
2018-Jan-10 21:28N 43°22' W 003°04'0 0.0
2018-Jan-10 20:55N 43°22' W 003°04'0 0.0
2018-Jan-10 20:25N 43°22' W 003°04'0 0.0
2018-Jan-10 19:49N 43°22' W 003°04'0 0.0
2018-Jan-10 19:28N 43°22' W 003°04'0 0.0
2018-Jan-10 18:58N 43°22' W 003°04'0 0.0
2018-Jan-10 18:28N 43°22' W 003°04'0 0.0
2018-Jan-10 17:52N 43°22' W 003°04'0 0.0
2018-Jan-10 17:28N 43°22' W 003°04'0 0.0
2018-Jan-10 16:58N 43°22' W 003°04'0 0.0
2018-Jan-10 16:28N 43°22' W 003°04'0 0.0
2018-Jan-10 15:52N 43°22' W 003°04'0 0.0
2018-Jan-10 15:28N 43°22' W 003°04'0 0.0
2018-Jan-10 14:58N 43°22' W 003°04'0 0.0
2018-Jan-10 14:28N 43°22' W 003°04'0 0.0
2018-Jan-10 13:58N 43°22' W 003°04'0 0.0
2018-Jan-10 13:28N 43°22' W 003°04'0 0.0
2018-Jan-10 12:55N 43°22' W 003°04'0 0.0
2018-Jan-10 12:28N 43°22' W 003°04'0 0.0
2018-Jan-10 11:58N 43°22' W 003°04'0 0.0
2018-Jan-10 11:28N 43°22' W 003°04'0 0.0
2018-Jan-10 10:58N 43°22' W 003°04'0 0.0
2018-Jan-10 10:28N 43°22' W 003°04'0 0.0
2018-Jan-10 09:55N 43°22' W 003°04'0 0.0
2018-Jan-10 09:28N 43°22' W 003°04'0 0.0
2018-Jan-10 08:55N 43°22' W 003°04'0 0.0
2018-Jan-10 08:07N 43°22' W 003°04'0 0.0
2018-Jan-10 07:55N 43°22' W 003°04'0 0.0
2018-Jan-10 07:25N 43°22' W 003°04'0 0.0
2018-Jan-10 06:55N 43°22' W 003°04'0 0.0
2018-Jan-10 06:25N 43°22' W 003°04'0 0.0
2018-Jan-10 05:58N 43°22' W 003°04'0 0.0
2018-Jan-10 05:28N 43°22' W 003°04'0 0.0
2018-Jan-10 04:55N 43°22' W 003°04'0 0.0
2018-Jan-10 04:28N 43°22' W 003°04'0 0.0
2018-Jan-10 03:58N 43°22' W 003°04'0 0.0
2018-Jan-10 03:22N 43°22' W 003°04'0 0.0
2018-Jan-10 02:58N 43°22' W 003°04'0 0.0
2018-Jan-10 02:28N 43°22' W 003°04'0 0.0
2018-Jan-10 01:58N 43°22' W 003°04'0 0.0
2018-Jan-10 01:28N 43°22' W 003°04'0 0.0
2018-Jan-10 00:55N 43°22' W 003°04'0 0.0
2018-Jan-10 00:22N 43°22' W 003°04'0 0.0
2018-Jan-10 00:01N 43°22' W 003°04'0 0.0
2018-Jan-09 23:31N 43°22' W 003°04'0 0.0
2018-Jan-09 23:01N 43°22' W 003°04'0 0.0
2018-Jan-09 22:30N 43°22' W 003°04'0 0.0
2018-Jan-09 22:00N 43°22' W 003°04'0 0.0
2018-Jan-09 21:30N 43°22' W 003°04'0 0.0
2018-Jan-09 21:00N 43°22' W 003°04'0 0.0
2018-Jan-09 20:18N 43°22' W 003°04'0 0.0
2018-Jan-09 20:00N 43°22' W 003°04'0 0.0
2018-Jan-09 19:30N 43°22' W 003°04'0 0.0
2018-Jan-09 18:54N 43°22' W 003°04'0 0.0
2018-Jan-09 18:30N 43°22' W 003°04'0 0.0
2018-Jan-09 17:57N 43°22' W 003°04'0 0.2
2018-Jan-09 17:24N 43°21' W 003°04'1 2.4
2018-Jan-09 17:00N 43°21' W 003°03'1 1.6
2018-Jan-09 16:29N 43°20' W 003°02'0 0.0
2018-Jan-09 15:59N 43°20' W 003°02'0 0.0
2018-Jan-09 15:29N 43°20' W 003°02'0 0.0
2018-Jan-09 14:59N 43°20' W 003°02'0 0.0
2018-Jan-09 14:29N 43°20' W 003°02'0 0.0
2018-Jan-09 13:59N 43°20' W 003°02'0 0.0
2018-Jan-09 13:29N 43°20' W 003°02'0 0.0
2018-Jan-09 12:59N 43°20' W 003°02'0 0.0
2018-Jan-09 12:29N 43°20' W 003°02'0 0.0
2018-Jan-09 11:53N 43°20' W 003°02'0 0.0
2018-Jan-09 11:29N 43°20' W 003°02'0 0.0
2018-Jan-09 10:59N 43°20' W 003°02'0 0.0
2018-Jan-09 10:29N 43°20' W 003°02'0 0.0
2018-Jan-09 09:59N 43°20' W 003°02'0 0.0
2018-Jan-09 09:29N 43°20' W 003°02'0 0.0
2018-Jan-09 08:59N 43°20' W 003°02'0 0.0
2018-Jan-09 08:29N 43°20' W 003°02'0 0.0
2018-Jan-09 07:59N 43°20' W 003°02'0 0.0
2018-Jan-09 07:29N 43°20' W 003°02'0 0.0
2018-Jan-09 06:59N 43°20' W 003°02'0 0.0
2018-Jan-09 06:28N 43°20' W 003°02'0 0.0
2018-Jan-09 05:58N 43°20' W 003°02'0 0.0
2018-Jan-09 05:28N 43°20' W 003°02'0 0.0
2018-Jan-09 04:55N 43°20' W 003°02'0 0.0
2018-Jan-09 04:28N 43°20' W 003°02'0 0.0
2018-Jan-09 03:58N 43°20' W 003°02'0 0.0
2018-Jan-09 03:28N 43°20' W 003°02'0 0.0
2018-Jan-09 02:58N 43°20' W 003°02'0 0.0
2018-Jan-09 02:28N 43°20' W 003°02'0 0.0
2018-Jan-09 01:58N 43°20' W 003°02'0 0.0
2018-Jan-09 01:28N 43°20' W 003°02'0 0.0
2018-Jan-09 00:58N 43°20' W 003°02'0 0.0
2018-Jan-09 00:28N 43°20' W 003°02'0 0.0
2018-Jan-08 23:58N 43°20' W 003°02'0 0.0
2018-Jan-08 23:28N 43°20' W 003°02'0 0.0
2018-Jan-08 22:58N 43°20' W 003°02'0 0.0
2018-Jan-08 22:28N 43°20' W 003°02'0 0.0
2018-Jan-08 21:58N 43°20' W 003°02'0 0.0
2018-Jan-08 21:28N 43°20' W 003°02'0 0.0
2018-Jan-08 20:58N 43°20' W 003°02'0 0.0
2018-Jan-08 20:28N 43°20' W 003°02'0 0.0
2018-Jan-08 19:58N 43°20' W 003°02'0 0.0
2018-Jan-08 19:28N 43°20' W 003°02'0 0.0
2018-Jan-08 18:58N 43°20' W 003°02'0 0.0
2018-Jan-08 18:28N 43°20' W 003°02'0 0.0
2018-Jan-08 17:58N 43°20' W 003°02'0 0.0
2018-Jan-08 17:28N 43°20' W 003°02'0 0.0
2018-Jan-08 16:58N 43°20' W 003°02'0 0.0
2018-Jan-08 16:28N 43°20' W 003°02'0 0.0
2018-Jan-08 15:58N 43°20' W 003°02'0 0.0
2018-Jan-08 15:28N 43°20' W 003°02'0 0.0
2018-Jan-08 14:58N 43°20' W 003°02'0 0.0
2018-Jan-08 14:28N 43°20' W 003°02'0 0.0
2018-Jan-08 13:58N 43°20' W 003°02'0 0.0
2018-Jan-08 13:30N 43°20' W 003°02'3 5.3
2018-Jan-08 13:00N 43°23' W 003°04'4 8.6
2018-Jan-08 12:30N 43°27' W 003°06'5 9.0
2018-Jan-08 11:56N 43°32' W 003°07'4 9.0
2018-Jan-08 11:30N 43°36' W 003°08'3 5.4
2018-Jan-08 11:00N 43°38' W 003°08'2 3.3
2018-Jan-08 10:30N 43°37' W 003°08'2 3.4
2018-Jan-08 10:00N 43°35' W 003°07'2 3.6
2018-Jan-08 09:30N 43°33' W 003°07'2 3.7
2018-Jan-08 09:00N 43°32' W 003°06'2 3.8
2018-Jan-08 08:30N 43°30' W 003°05'1 1.8
2018-Jan-08 08:00N 43°30' W 003°04'4 7.8
2018-Jan-08 07:30N 43°34' W 003°03'2 3.7
2018-Jan-08 07:00N 43°36' W 003°03'2 3.9
2018-Jan-08 06:30N 43°38' W 003°05'2 4.0
2018-Jan-08 06:00N 43°40' W 003°06'2 4.0
2018-Jan-08 05:30N 43°42' W 003°06'3 4.9
2018-Jan-08 04:58N 43°44' W 003°07'5 8.4
2018-Jan-08 04:24N 43°49' W 003°07'  
Track history (hours):
 
Tides and Currents Weather Stations Pressure Air Temp Water Temp Dewpoint Dewpoint Depression Visibility Wind Speed Wind Dir Waves Ship Positions

Helas

Last reported at 2018-Jan-18 03:28 UTC. Time now 2018-Jan-18 03:52 UTC.
Position N 52°28' E 004°36'.

Length 89 m; draft 5.5 m.

Type: Cargo ship. MMSI: 210031000.

Date/timePositionNaut miles runAvg speedWind from/ knotsBaromVisibWave heightAir tempDewpointWater temp
2018-Jan-18 03:28N 52°28' E 004°36'0 0.0
2018-Jan-18 02:58N 52°28' E 004°36'0 0.0
2018-Jan-18 02:28N 52°28' E 004°36'0 0.0
2018-Jan-18 01:58N 52°28' E 004°36'0 0.0
2018-Jan-18 01:28N 52°28' E 004°36'0 0.0
2018-Jan-18 00:58N 52°28' E 004°36'0 0.0
2018-Jan-17 23:58N 52°28' E 004°36'0 0.5
2018-Jan-17 23:55N 52°28' E 004°36'  
2018-Jan-11 17:32N 43°38' W 003°10'0 5.7
2018-Jan-11 17:29N 43°38' W 003°10'2 5.2
2018-Jan-11 17:00N 43°35' W 003°10'2 3.9
2018-Jan-11 16:30N 43°33' W 003°10'2 4.4
2018-Jan-11 15:59N 43°31' W 003°09'2 4.6
2018-Jan-11 15:30N 43°29' W 003°08'3 5.3
2018-Jan-11 15:00N 43°27' W 003°07'4 7.1
2018-Jan-11 14:31N 43°23' W 003°05'2 4.0
2018-Jan-11 14:00N 43°22' W 003°04'0 0.1
2018-Jan-11 13:26N 43°22' W 003°04'0 0.0
2018-Jan-11 12:56N 43°22' W 003°04'0 0.0
2018-Jan-11 12:29N 43°22' W 003°04'0 0.0
2018-Jan-11 11:59N 43°22' W 003°04'0 0.0
2018-Jan-11 11:20N 43°22' W 003°04'0 0.0
2018-Jan-11 10:56N 43°22' W 003°04'0 0.0
2018-Jan-11 10:26N 43°22' W 003°04'0 0.0
2018-Jan-11 09:56N 43°22' W 003°04'0 0.0
2018-Jan-11 09:26N 43°22' W 003°04'0 0.0
2018-Jan-11 08:02N 43°22' W 003°04'0 0.0
2018-Jan-11 07:53N 43°22' W 003°04'0 0.0
2018-Jan-11 07:29N 43°22' W 003°04'0 0.0
2018-Jan-11 05:31N 43°22' W 003°04'0 0.0
2018-Jan-11 05:25N 43°22' W 003°04'0 0.0
2018-Jan-11 03:25N 43°22' W 003°04'0 0.0
2018-Jan-11 02:46N 43°22' W 003°04'0 0.0
2018-Jan-11 02:28N 43°22' W 003°04'0 0.0
2018-Jan-11 01:58N 43°22' W 003°04'0 0.0
2018-Jan-11 01:28N 43°22' W 003°04'0 0.0
2018-Jan-11 00:58N 43°22' W 003°04'0 0.0
2018-Jan-11 00:25N 43°22' W 003°04'0 0.0
2018-Jan-10 23:58N 43°22' W 003°04'0 0.0
2018-Jan-10 23:25N 43°22' W 003°04'0 0.0
2018-Jan-10 22:52N 43°22' W 003°04'0 0.0
2018-Jan-10 22:28N 43°22' W 003°04'0 0.0
2018-Jan-10 21:58N 43°22' W 003°04'0 0.0
2018-Jan-10 21:28N 43°22' W 003°04'0 0.0
2018-Jan-10 20:55N 43°22' W 003°04'0 0.0
2018-Jan-10 20:25N 43°22' W 003°04'0 0.0
2018-Jan-10 19:49N 43°22' W 003°04'0 0.0
2018-Jan-10 19:28N 43°22' W 003°04'0 0.0
2018-Jan-10 18:58N 43°22' W 003°04'0 0.0
2018-Jan-10 18:28N 43°22' W 003°04'0 0.0
2018-Jan-10 17:52N 43°22' W 003°04'0 0.0
2018-Jan-10 17:28N 43°22' W 003°04'0 0.0
2018-Jan-10 16:58N 43°22' W 003°04'0 0.0
2018-Jan-10 16:28N 43°22' W 003°04'0 0.0
2018-Jan-10 15:52N 43°22' W 003°04'0 0.0
2018-Jan-10 15:28N 43°22' W 003°04'0 0.0
2018-Jan-10 14:58N 43°22' W 003°04'0 0.0
2018-Jan-10 14:28N 43°22' W 003°04'0 0.0
2018-Jan-10 13:58N 43°22' W 003°04'0 0.0
2018-Jan-10 13:28N 43°22' W 003°04'0 0.0
2018-Jan-10 12:55N 43°22' W 003°04'0 0.0
2018-Jan-10 12:28N 43°22' W 003°04'0 0.0
2018-Jan-10 11:58N 43°22' W 003°04'0 0.0
2018-Jan-10 11:28N 43°22' W 003°04'0 0.0
2018-Jan-10 10:58N 43°22' W 003°04'0 0.0
2018-Jan-10 10:28N 43°22' W 003°04'0 0.0
2018-Jan-10 09:55N 43°22' W 003°04'0 0.0
2018-Jan-10 09:28N 43°22' W 003°04'0 0.0
2018-Jan-10 08:55N 43°22' W 003°04'0 0.0
2018-Jan-10 08:07N 43°22' W 003°04'0 0.0
2018-Jan-10 07:55N 43°22' W 003°04'0 0.0
2018-Jan-10 07:25N 43°22' W 003°04'0 0.0
2018-Jan-10 06:55N 43°22' W 003°04'0 0.0
2018-Jan-10 06:25N 43°22' W 003°04'0 0.0
2018-Jan-10 05:58N 43°22' W 003°04'0 0.0
2018-Jan-10 05:28N 43°22' W 003°04'0 0.0
2018-Jan-10 04:55N 43°22' W 003°04'0 0.0
2018-Jan-10 04:28N 43°22' W 003°04'0 0.0
2018-Jan-10 03:58N 43°22' W 003°04'0 0.0
2018-Jan-10 03:22N 43°22' W 003°04'0 0.0
2018-Jan-10 02:58N 43°22' W 003°04'0 0.0
2018-Jan-10 02:28N 43°22' W 003°04'0 0.0
2018-Jan-10 01:58N 43°22' W 003°04'0 0.0
2018-Jan-10 01:28N 43°22' W 003°04'0 0.0
2018-Jan-10 00:55N 43°22' W 003°04'0 0.0
2018-Jan-10 00:22N 43°22' W 003°04'0 0.0
2018-Jan-10 00:01N 43°22' W 003°04'0 0.0
2018-Jan-09 23:31N 43°22' W 003°04'0 0.0
2018-Jan-09 23:01N 43°22' W 003°04'0 0.0
2018-Jan-09 22:30N 43°22' W 003°04'0 0.0
2018-Jan-09 22:00N 43°22' W 003°04'0 0.0
2018-Jan-09 21:30N 43°22' W 003°04'0 0.0
2018-Jan-09 21:00N 43°22' W 003°04'0 0.0
2018-Jan-09 20:18N 43°22' W 003°04'0 0.0
2018-Jan-09 20:00N 43°22' W 003°04'0 0.0
2018-Jan-09 19:30N 43°22' W 003°04'0 0.0
2018-Jan-09 18:54N 43°22' W 003°04'0 0.0
2018-Jan-09 18:30N 43°22' W 003°04'0 0.0
2018-Jan-09 17:57N 43°22' W 003°04'0 0.2
2018-Jan-09 17:24N 43°21' W 003°04'1 2.4
2018-Jan-09 17:00N 43°21' W 003°03'1 1.6
2018-Jan-09 16:29N 43°20' W 003°02'0 0.0
2018-Jan-09 15:59N 43°20' W 003°02'0 0.0
2018-Jan-09 15:29N 43°20' W 003°02'0 0.0
2018-Jan-09 14:59N 43°20' W 003°02'0 0.0
2018-Jan-09 14:29N 43°20' W 003°02'0 0.0
2018-Jan-09 13:59N 43°20' W 003°02'0 0.0
2018-Jan-09 13:29N 43°20' W 003°02'0 0.0
2018-Jan-09 12:59N 43°20' W 003°02'0 0.0
2018-Jan-09 12:29N 43°20' W 003°02'0 0.0
2018-Jan-09 11:53N 43°20' W 003°02'0 0.0
2018-Jan-09 11:29N 43°20' W 003°02'0 0.0
2018-Jan-09 10:59N 43°20' W 003°02'0 0.0
2018-Jan-09 10:29N 43°20' W 003°02'0 0.0
2018-Jan-09 09:59N 43°20' W 003°02'0 0.0
2018-Jan-09 09:29N 43°20' W 003°02'0 0.0
2018-Jan-09 08:59N 43°20' W 003°02'0 0.0
2018-Jan-09 08:29N 43°20' W 003°02'0 0.0
2018-Jan-09 07:59N 43°20' W 003°02'0 0.0
2018-Jan-09 07:29N 43°20' W 003°02'0 0.0
2018-Jan-09 06:59N 43°20' W 003°02'0 0.0
2018-Jan-09 06:28N 43°20' W 003°02'0 0.0
2018-Jan-09 05:58N 43°20' W 003°02'0 0.0
2018-Jan-09 05:28N 43°20' W 003°02'0 0.0
2018-Jan-09 04:55N 43°20' W 003°02'0 0.0
2018-Jan-09 04:28N 43°20' W 003°02'0 0.0
2018-Jan-09 03:58N 43°20' W 003°02'0 0.0
2018-Jan-09 03:28N 43°20' W 003°02'0 0.0
2018-Jan-09 02:58N 43°20' W 003°02'0 0.0
2018-Jan-09 02:28N 43°20' W 003°02'0 0.0
2018-Jan-09 01:58N 43°20' W 003°02'0 0.0
2018-Jan-09 01:28N 43°20' W 003°02'0 0.0
2018-Jan-09 00:58N 43°20' W 003°02'0 0.0
2018-Jan-09 00:28N 43°20' W 003°02'0 0.0
2018-Jan-08 23:58N 43°20' W 003°02'0 0.0
2018-Jan-08 23:28N 43°20' W 003°02'0 0.0
2018-Jan-08 22:58N 43°20' W 003°02'0 0.0
2018-Jan-08 22:28N 43°20' W 003°02'0 0.0
2018-Jan-08 21:58N 43°20' W 003°02'0 0.0
2018-Jan-08 21:28N 43°20' W 003°02'0 0.0
2018-Jan-08 20:58N 43°20' W 003°02'0 0.0
2018-Jan-08 20:28N 43°20' W 003°02'0 0.0
2018-Jan-08 19:58N 43°20' W 003°02'0 0.0
2018-Jan-08 19:28N 43°20' W 003°02'0 0.0
2018-Jan-08 18:58N 43°20' W 003°02'0 0.0
2018-Jan-08 18:28N 43°20' W 003°02'0 0.0
2018-Jan-08 17:58N 43°20' W 003°02'0 0.0
2018-Jan-08 17:28N 43°20' W 003°02'0 0.0
2018-Jan-08 16:58N 43°20' W 003°02'0 0.0
2018-Jan-08 16:28N 43°20' W 003°02'0 0.0
2018-Jan-08 15:58N 43°20' W 003°02'0 0.0
2018-Jan-08 15:28N 43°20' W 003°02'0 0.0
2018-Jan-08 14:58N 43°20' W 003°02'0 0.0
2018-Jan-08 14:28N 43°20' W 003°02'0 0.0
2018-Jan-08 13:58N 43°20' W 003°02'0 0.0
2018-Jan-08 13:30N 43°20' W 003°02'3 5.3
2018-Jan-08 13:00N 43°23' W 003°04'4 8.6
2018-Jan-08 12:30N 43°27' W 003°06'5 9.0
2018-Jan-08 11:56N 43°32' W 003°07'4 9.0
2018-Jan-08 11:30N 43°36' W 003°08'3 5.4
2018-Jan-08 11:00N 43°38' W 003°08'2 3.3
2018-Jan-08 10:30N 43°37' W 003°08'2 3.4
2018-Jan-08 10:00N 43°35' W 003°07'2 3.6
2018-Jan-08 09:30N 43°33' W 003°07'2 3.7
2018-Jan-08 09:00N 43°32' W 003°06'2 3.8
2018-Jan-08 08:30N 43°30' W 003°05'1 1.8
2018-Jan-08 08:00N 43°30' W 003°04'4 7.8
2018-Jan-08 07:30N 43°34' W 003°03'2 3.7
2018-Jan-08 07:00N 43°36' W 003°03'2 3.9
2018-Jan-08 06:30N 43°38' W 003°05'2 4.0
2018-Jan-08 06:00N 43°40' W 003°06'2 4.0
2018-Jan-08 05:30N 43°42' W 003°06'3 4.9
2018-Jan-08 04:58N 43°44' W 003°07'5 8.4
2018-Jan-08 04:24N 43°49' W 003°07'  

Dump ship's entire track history